sensor_id;sensor_type;location;lat;lon;timestamp;P1;durP1;ratioP1;P2;durP2;ratioP2
16460;SDS011;8341;42.048;24.650;2023-02-28T00:01:13;19.05;;;3.83;;
16460;SDS011;8341;42.048;24.650;2023-02-28T00:03:40;20.38;;;4.30;;
16460;SDS011;8341;42.048;24.650;2023-02-28T00:06:08;16.38;;;4.47;;
16460;SDS011;8341;42.048;24.650;2023-02-28T00:08:35;17.27;;;4.28;;
16460;SDS011;8341;42.048;24.650;2023-02-28T00:11:03;17.38;;;4.00;;
16460;SDS011;8341;42.048;24.650;2023-02-28T00:13:31;16.73;;;4.55;;
16460;SDS011;8341;42.048;24.650;2023-02-28T00:16:02;19.90;;;5.40;;
16460;SDS011;8341;42.048;24.650;2023-02-28T00:18:30;17.80;;;4.78;;
16460;SDS011;8341;42.048;24.650;2023-02-28T00:20:57;18.08;;;4.00;;
16460;SDS011;8341;42.048;24.650;2023-02-28T00:23:24;20.98;;;4.57;;
16460;SDS011;8341;42.048;24.650;2023-02-28T00:25:51;19.67;;;4.38;;
16460;SDS011;8341;42.048;24.650;2023-02-28T00:28:18;22.80;;;4.63;;
16460;SDS011;8341;42.048;24.650;2023-02-28T00:30:46;19.27;;;4.45;;
16460;SDS011;8341;42.048;24.650;2023-02-28T00:33:14;21.77;;;4.57;;
16460;SDS011;8341;42.048;24.650;2023-02-28T00:35:41;25.33;;;4.63;;
16460;SDS011;8341;42.048;24.650;2023-02-28T00:38:07;17.95;;;4.80;;
16460;SDS011;8341;42.048;24.650;2023-02-28T00:40:34;12.93;;;4.45;;
16460;SDS011;8341;42.048;24.650;2023-02-28T00:43:01;17.83;;;4.05;;
16460;SDS011;8341;42.048;24.650;2023-02-28T00:45:29;14.98;;;4.45;;
16460;SDS011;8341;42.048;24.650;2023-02-28T00:47:55;20.80;;;4.20;;
16460;SDS011;8341;42.048;24.650;2023-02-28T00:50:24;22.77;;;4.15;;
16460;SDS011;8341;42.048;24.650;2023-02-28T00:52:51;19.08;;;4.50;;
16460;SDS011;8341;42.048;24.650;2023-02-28T00:55:17;14.85;;;3.90;;
16460;SDS011;8341;42.048;24.650;2023-02-28T00:57:44;13.63;;;3.97;;
16460;SDS011;8341;42.048;24.650;2023-02-28T01:00:12;14.82;;;4.15;;
16460;SDS011;8341;42.048;24.650;2023-02-28T01:02:39;18.23;;;4.70;;
16460;SDS011;8341;42.048;24.650;2023-02-28T01:05:06;15.77;;;4.30;;
16460;SDS011;8341;42.048;24.650;2023-02-28T01:07:35;19.30;;;4.43;;
16460;SDS011;8341;42.048;24.650;2023-02-28T01:10:02;13.52;;;4.38;;
16460;SDS011;8341;42.048;24.650;2023-02-28T01:12:29;14.75;;;3.97;;
16460;SDS011;8341;42.048;24.650;2023-02-28T01:14:55;19.77;;;4.07;;
16460;SDS011;8341;42.048;24.650;2023-02-28T01:17:22;18.33;;;3.90;;
16460;SDS011;8341;42.048;24.650;2023-02-28T01:19:49;14.88;;;4.72;;
16460;SDS011;8341;42.048;24.650;2023-02-28T01:22:19;15.05;;;5.13;;
16460;SDS011;8341;42.048;24.650;2023-02-28T01:24:47;19.25;;;4.25;;
16460;SDS011;8341;42.048;24.650;2023-02-28T01:27:14;17.95;;;4.68;;
16460;SDS011;8341;42.048;24.650;2023-02-28T01:29:41;13.70;;;4.47;;
16460;SDS011;8341;42.048;24.650;2023-02-28T01:32:08;19.55;;;4.53;;
16460;SDS011;8341;42.048;24.650;2023-02-28T01:34:34;17.58;;;4.15;;
16460;SDS011;8341;42.048;24.650;2023-02-28T01:37:01;20.00;;;4.32;;
16460;SDS011;8341;42.048;24.650;2023-02-28T01:39:28;15.70;;;4.68;;
16460;SDS011;8341;42.048;24.650;2023-02-28T01:41:56;24.00;;;4.97;;
16460;SDS011;8341;42.048;24.650;2023-02-28T01:47:23;20.67;;;4.93;;
16460;SDS011;8341;42.048;24.650;2023-02-28T01:49:54;11.27;;;3.92;;
16460;SDS011;8341;42.048;24.650;2023-02-28T01:52:21;12.63;;;3.78;;
16460;SDS011;8341;42.048;24.650;2023-02-28T01:54:51;16.45;;;4.10;;
16460;SDS011;8341;42.048;24.650;2023-02-28T01:57:22;16.75;;;4.07;;
16460;SDS011;8341;42.048;24.650;2023-02-28T01:59:53;18.00;;;4.20;;
16460;SDS011;8341;42.048;24.650;2023-02-28T02:02:24;20.45;;;4.07;;
16460;SDS011;8341;42.048;24.650;2023-02-28T02:04:53;16.05;;;4.07;;
16460;SDS011;8341;42.048;24.650;2023-02-28T02:07:23;18.50;;;4.65;;
16460;SDS011;8341;42.048;24.650;2023-02-28T02:09:56;14.68;;;4.03;;
16460;SDS011;8341;42.048;24.650;2023-02-28T02:12:30;18.10;;;3.90;;
16460;SDS011;8341;42.048;24.650;2023-02-28T02:15:13;13.05;;;3.83;;
16460;SDS011;8341;42.048;24.650;2023-02-28T02:17:44;19.17;;;4.85;;
16460;SDS011;8341;42.048;24.650;2023-02-28T02:26:50;15.85;;;4.18;;
16460;SDS011;8341;42.048;24.650;2023-02-28T02:29:45;14.57;;;3.78;;
16460;SDS011;8341;42.048;24.650;2023-02-28T02:32:30;18.52;;;4.18;;
16460;SDS011;8341;42.048;24.650;2023-02-28T02:35:14;13.80;;;4.22;;
16460;SDS011;8341;42.048;24.650;2023-02-28T02:37:47;18.83;;;4.53;;
16460;SDS011;8341;42.048;24.650;2023-02-28T02:40:18;22.02;;;4.40;;
16460;SDS011;8341;42.048;24.650;2023-02-28T02:42:48;21.77;;;3.75;;
16460;SDS011;8341;42.048;24.650;2023-02-28T02:45:23;14.15;;;3.83;;
16460;SDS011;8341;42.048;24.650;2023-02-28T02:47:53;22.23;;;4.55;;
16460;SDS011;8341;42.048;24.650;2023-02-28T02:50:26;13.30;;;3.80;;
16460;SDS011;8341;42.048;24.650;2023-02-28T02:52:58;22.67;;;4.53;;
16460;SDS011;8341;42.048;24.650;2023-02-28T02:55:28;22.90;;;4.30;;
16460;SDS011;8341;42.048;24.650;2023-02-28T02:57:59;17.02;;;4.28;;
16460;SDS011;8341;42.048;24.650;2023-02-28T03:00:30;19.73;;;4.38;;
16460;SDS011;8341;42.048;24.650;2023-02-28T03:03:01;21.52;;;4.20;;
16460;SDS011;8341;42.048;24.650;2023-02-28T03:05:32;21.70;;;4.70;;
16460;SDS011;8341;42.048;24.650;2023-02-28T03:08:05;20.15;;;4.18;;
16460;SDS011;8341;42.048;24.650;2023-02-28T03:10:33;15.45;;;4.35;;
16460;SDS011;8341;42.048;24.650;2023-02-28T03:13:11;16.25;;;4.45;;
16460;SDS011;8341;42.048;24.650;2023-02-28T03:15:50;24.58;;;4.85;;
16460;SDS011;8341;42.048;24.650;2023-02-28T03:18:30;18.92;;;3.33;;
16460;SDS011;8341;42.048;24.650;2023-02-28T03:21:06;40.78;;;16.33;;
16460;SDS011;8341;42.048;24.650;2023-02-28T03:23:44;35.08;;;13.50;;
16460;SDS011;8341;42.048;24.650;2023-02-28T03:26:20;19.67;;;6.85;;
16460;SDS011;8341;42.048;24.650;2023-02-28T03:28:51;21.90;;;7.03;;
16460;SDS011;8341;42.048;24.650;2023-02-28T03:31:26;19.70;;;6.10;;
16460;SDS011;8341;42.048;24.650;2023-02-28T03:33:58;26.65;;;8.48;;
16460;SDS011;8341;42.048;24.650;2023-02-28T03:36:30;21.50;;;6.75;;
16460;SDS011;8341;42.048;24.650;2023-02-28T03:39:07;29.52;;;10.18;;
16460;SDS011;8341;42.048;24.650;2023-02-28T03:41:36;27.40;;;7.38;;
16460;SDS011;8341;42.048;24.650;2023-02-28T03:44:07;23.60;;;6.75;;
16460;SDS011;8341;42.048;24.650;2023-02-28T03:46:41;17.65;;;5.78;;
16460;SDS011;8341;42.048;24.650;2023-02-28T03:49:13;21.05;;;5.32;;
16460;SDS011;8341;42.048;24.650;2023-02-28T03:51:45;19.85;;;5.13;;
16460;SDS011;8341;42.048;24.650;2023-02-28T03:54:14;22.02;;;5.35;;
16460;SDS011;8341;42.048;24.650;2023-02-28T03:56:46;18.50;;;4.18;;
16460;SDS011;8341;42.048;24.650;2023-02-28T03:59:18;17.38;;;4.80;;
16460;SDS011;8341;42.048;24.650;2023-02-28T04:01:50;15.45;;;4.13;;
16460;SDS011;8341;42.048;24.650;2023-02-28T04:04:17;20.15;;;7.75;;
16460;SDS011;8341;42.048;24.650;2023-02-28T04:06:47;19.33;;;6.68;;
16460;SDS011;8341;42.048;24.650;2023-02-28T04:09:16;25.00;;;5.78;;
16460;SDS011;8341;42.048;24.650;2023-02-28T04:11:43;16.63;;;4.60;;
16460;SDS011;8341;42.048;24.650;2023-02-28T04:14:12;19.58;;;4.82;;
16460;SDS011;8341;42.048;24.650;2023-02-28T04:16:39;18.77;;;4.63;;
16460;SDS011;8341;42.048;24.650;2023-02-28T04:19:07;16.20;;;4.22;;
16460;SDS011;8341;42.048;24.650;2023-02-28T04:21:35;18.27;;;4.88;;
16460;SDS011;8341;42.048;24.650;2023-02-28T04:24:07;15.73;;;4.38;;
16460;SDS011;8341;42.048;24.650;2023-02-28T04:26:39;16.35;;;4.10;;
16460;SDS011;8341;42.048;24.650;2023-02-28T04:29:08;16.48;;;3.90;;
16460;SDS011;8341;42.048;24.650;2023-02-28T04:31:36;16.88;;;4.13;;
16460;SDS011;8341;42.048;24.650;2023-02-28T04:34:03;21.25;;;4.60;;
16460;SDS011;8341;42.048;24.650;2023-02-28T04:36:30;12.63;;;4.05;;
16460;SDS011;8341;42.048;24.650;2023-02-28T04:38:57;24.23;;;6.13;;
16460;SDS011;8341;42.048;24.650;2023-02-28T04:41:25;20.92;;;5.03;;
16460;SDS011;8341;42.048;24.650;2023-02-28T04:43:52;23.98;;;6.75;;
16460;SDS011;8341;42.048;24.650;2023-02-28T04:46:19;15.90;;;5.00;;
16460;SDS011;8341;42.048;24.650;2023-02-28T04:48:46;14.68;;;5.07;;
16460;SDS011;8341;42.048;24.650;2023-02-28T04:51:13;13.63;;;4.80;;
16460;SDS011;8341;42.048;24.650;2023-02-28T04:53:42;19.90;;;6.13;;
16460;SDS011;8341;42.048;24.650;2023-02-28T04:56:10;18.52;;;5.32;;
16460;SDS011;8341;42.048;24.650;2023-02-28T04:58:40;17.23;;;5.47;;
16460;SDS011;8341;42.048;24.650;2023-02-28T05:01:16;18.67;;;5.45;;
16460;SDS011;8341;42.048;24.650;2023-02-28T05:03:45;12.88;;;4.35;;
16460;SDS011;8341;42.048;24.650;2023-02-28T05:06:12;21.42;;;5.35;;
16460;SDS011;8341;42.048;24.650;2023-02-28T05:08:40;16.77;;;4.40;;
16460;SDS011;8341;42.048;24.650;2023-02-28T05:11:08;15.45;;;4.82;;
16460;SDS011;8341;42.048;24.650;2023-02-28T05:13:41;18.77;;;5.10;;
16460;SDS011;8341;42.048;24.650;2023-02-28T05:16:08;19.13;;;5.00;;
16460;SDS011;8341;42.048;24.650;2023-02-28T05:18:35;23.05;;;7.55;;
16460;SDS011;8341;42.048;24.650;2023-02-28T05:21:02;21.83;;;6.10;;
16460;SDS011;8341;42.048;24.650;2023-02-28T05:28:39;15.27;;;5.13;;
16460;SDS011;8341;42.048;24.650;2023-02-28T05:31:08;16.65;;;4.93;;
16460;SDS011;8341;42.048;24.650;2023-02-28T05:33:37;11.63;;;5.95;;
16460;SDS011;8341;42.048;24.650;2023-02-28T05:36:04;20.70;;;5.40;;
16460;SDS011;8341;42.048;24.650;2023-02-28T05:38:32;11.38;;;4.95;;
16460;SDS011;8341;42.048;24.650;2023-02-28T05:40:59;22.35;;;5.68;;
16460;SDS011;8341;42.048;24.650;2023-02-28T05:43:26;15.30;;;6.97;;
16460;SDS011;8341;42.048;24.650;2023-02-28T05:45:53;21.00;;;8.00;;
16460;SDS011;8341;42.048;24.650;2023-02-28T05:48:21;20.80;;;8.13;;
16460;SDS011;8341;42.048;24.650;2023-02-28T05:50:47;24.05;;;8.75;;
16460;SDS011;8341;42.048;24.650;2023-02-28T05:53:14;19.23;;;7.50;;
16460;SDS011;8341;42.048;24.650;2023-02-28T05:55:41;22.30;;;7.80;;
16460;SDS011;8341;42.048;24.650;2023-02-28T05:58:08;21.98;;;7.70;;
16460;SDS011;8341;42.048;24.650;2023-02-28T06:00:34;14.52;;;6.68;;
16460;SDS011;8341;42.048;24.650;2023-02-28T06:03:01;48.90;;;22.85;;
16460;SDS011;8341;42.048;24.650;2023-02-28T06:05:29;72.75;;;40.83;;
16460;SDS011;8341;42.048;24.650;2023-02-28T06:07:56;30.75;;;16.45;;
16460;SDS011;8341;42.048;24.650;2023-02-28T06:10:23;32.65;;;15.23;;
16460;SDS011;8341;42.048;24.650;2023-02-28T06:12:50;26.02;;;11.52;;
16460;SDS011;8341;42.048;24.650;2023-02-28T06:15:16;28.23;;;12.75;;
16460;SDS011;8341;42.048;24.650;2023-02-28T06:17:43;33.88;;;17.23;;
16460;SDS011;8341;42.048;24.650;2023-02-28T06:20:11;58.10;;;29.85;;
16460;SDS011;8341;42.048;24.650;2023-02-28T06:22:40;76.97;;;36.80;;
16460;SDS011;8341;42.048;24.650;2023-02-28T06:25:09;48.63;;;26.17;;
16460;SDS011;8341;42.048;24.650;2023-02-28T06:27:36;20.98;;;10.73;;
16460;SDS011;8341;42.048;24.650;2023-02-28T06:30:03;22.48;;;12.55;;
16460;SDS011;8341;42.048;24.650;2023-02-28T06:32:30;23.50;;;12.25;;
16460;SDS011;8341;42.048;24.650;2023-02-28T06:34:57;24.20;;;13.05;;
16460;SDS011;8341;42.048;24.650;2023-02-28T06:37:24;23.77;;;12.88;;
16460;SDS011;8341;42.048;24.650;2023-02-28T06:39:53;25.63;;;12.75;;
16460;SDS011;8341;42.048;24.650;2023-02-28T06:42:21;21.30;;;12.70;;
16460;SDS011;8341;42.048;24.650;2023-02-28T06:44:49;24.23;;;12.85;;
16460;SDS011;8341;42.048;24.650;2023-02-28T06:47:16;26.98;;;15.60;;
16460;SDS011;8341;42.048;24.650;2023-02-28T06:49:43;29.33;;;15.40;;
16460;SDS011;8341;42.048;24.650;2023-02-28T06:52:10;25.00;;;13.55;;
16460;SDS011;8341;42.048;24.650;2023-02-28T06:54:37;25.65;;;13.02;;
16460;SDS011;8341;42.048;24.650;2023-02-28T06:57:06;23.58;;;12.50;;
16460;SDS011;8341;42.048;24.650;2023-02-28T06:59:32;17.92;;;11.27;;
16460;SDS011;8341;42.048;24.650;2023-02-28T07:02:00;24.67;;;12.95;;
16460;SDS011;8341;42.048;24.650;2023-02-28T07:04:27;23.58;;;12.80;;
16460;SDS011;8341;42.048;24.650;2023-02-28T07:06:54;24.92;;;12.45;;
16460;SDS011;8341;42.048;24.650;2023-02-28T07:09:23;27.30;;;12.77;;
16460;SDS011;8341;42.048;24.650;2023-02-28T07:11:55;19.45;;;12.68;;
16460;SDS011;8341;42.048;24.650;2023-02-28T07:14:23;23.35;;;12.43;;
16460;SDS011;8341;42.048;24.650;2023-02-28T07:16:50;24.25;;;13.13;;
16460;SDS011;8341;42.048;24.650;2023-02-28T07:19:16;25.08;;;11.90;;
16460;SDS011;8341;42.048;24.650;2023-02-28T07:21:43;21.85;;;12.90;;
16460;SDS011;8341;42.048;24.650;2023-02-28T07:24:10;26.85;;;13.10;;
16460;SDS011;8341;42.048;24.650;2023-02-28T07:26:37;23.75;;;14.65;;
16460;SDS011;8341;42.048;24.650;2023-02-28T07:29:04;27.05;;;14.82;;
16460;SDS011;8341;42.048;24.650;2023-02-28T07:31:32;24.95;;;13.82;;
16460;SDS011;8341;42.048;24.650;2023-02-28T07:33:59;23.80;;;14.32;;
16460;SDS011;8341;42.048;24.650;2023-02-28T07:36:25;26.80;;;14.15;;
16460;SDS011;8341;42.048;24.650;2023-02-28T07:38:52;24.65;;;16.42;;
16460;SDS011;8341;42.048;24.650;2023-02-28T07:41:20;28.13;;;16.33;;
16460;SDS011;8341;42.048;24.650;2023-02-28T07:43:49;26.25;;;16.27;;
16460;SDS011;8341;42.048;24.650;2023-02-28T07:46:16;33.20;;;18.45;;
16460;SDS011;8341;42.048;24.650;2023-02-28T07:48:46;32.92;;;16.05;;
16460;SDS011;8341;42.048;24.650;2023-02-28T07:51:13;29.65;;;16.52;;
16460;SDS011;8341;42.048;24.650;2023-02-28T07:53:40;31.10;;;17.52;;
16460;SDS011;8341;42.048;24.650;2023-02-28T07:56:07;26.88;;;17.65;;
16460;SDS011;8341;42.048;24.650;2023-02-28T07:58:35;29.98;;;17.27;;
16460;SDS011;8341;42.048;24.650;2023-02-28T08:01:06;29.35;;;17.50;;
16460;SDS011;8341;42.048;24.650;2023-02-28T08:03:33;37.20;;;17.25;;
16460;SDS011;8341;42.048;24.650;2023-02-28T08:06:02;29.77;;;17.52;;
16460;SDS011;8341;42.048;24.650;2023-02-28T08:08:29;31.25;;;17.75;;
16460;SDS011;8341;42.048;24.650;2023-02-28T08:10:57;26.38;;;15.82;;
16460;SDS011;8341;42.048;24.650;2023-02-28T08:13:25;32.42;;;17.60;;
16460;SDS011;8341;42.048;24.650;2023-02-28T08:15:53;29.52;;;17.88;;
16460;SDS011;8341;42.048;24.650;2023-02-28T08:18:20;32.08;;;18.25;;
16460;SDS011;8341;42.048;24.650;2023-02-28T08:20:47;33.58;;;17.98;;
16460;SDS011;8341;42.048;24.650;2023-02-28T08:23:15;26.92;;;17.17;;
16460;SDS011;8341;42.048;24.650;2023-02-28T08:25:42;29.23;;;17.27;;
16460;SDS011;8341;42.048;24.650;2023-02-28T08:28:09;33.92;;;17.83;;
16460;SDS011;8341;42.048;24.650;2023-02-28T08:30:35;29.17;;;17.67;;
16460;SDS011;8341;42.048;24.650;2023-02-28T08:33:03;33.33;;;18.58;;
16460;SDS011;8341;42.048;24.650;2023-02-28T08:35:30;33.30;;;17.95;;
16460;SDS011;8341;42.048;24.650;2023-02-28T08:37:56;29.45;;;17.92;;
16460;SDS011;8341;42.048;24.650;2023-02-28T08:40:24;29.60;;;18.45;;
16460;SDS011;8341;42.048;24.650;2023-02-28T08:42:51;32.05;;;18.15;;
16460;SDS011;8341;42.048;24.650;2023-02-28T08:45:18;30.27;;;17.67;;
16460;SDS011;8341;42.048;24.650;2023-02-28T08:47:45;31.08;;;18.48;;
16460;SDS011;8341;42.048;24.650;2023-02-28T08:50:12;34.45;;;18.92;;
16460;SDS011;8341;42.048;24.650;2023-02-28T08:52:41;32.75;;;18.17;;
16460;SDS011;8341;42.048;24.650;2023-02-28T08:55:09;26.85;;;17.42;;
16460;SDS011;8341;42.048;24.650;2023-02-28T08:57:37;31.33;;;18.23;;
16460;SDS011;8341;42.048;24.650;2023-02-28T09:00:04;31.65;;;17.25;;
16460;SDS011;8341;42.048;24.650;2023-02-28T09:02:33;31.08;;;18.13;;
16460;SDS011;8341;42.048;24.650;2023-02-28T09:05:00;28.13;;;17.70;;
16460;SDS011;8341;42.048;24.650;2023-02-28T09:07:28;29.33;;;17.60;;
16460;SDS011;8341;42.048;24.650;2023-02-28T09:09:56;29.58;;;17.83;;
16460;SDS011;8341;42.048;24.650;2023-02-28T09:12:24;37.55;;;18.60;;
16460;SDS011;8341;42.048;24.650;2023-02-28T09:14:53;33.85;;;18.63;;
16460;SDS011;8341;42.048;24.650;2023-02-28T09:17:20;29.77;;;17.02;;
16460;SDS011;8341;42.048;24.650;2023-02-28T09:19:47;30.55;;;18.60;;
16460;SDS011;8341;42.048;24.650;2023-02-28T09:22:15;26.75;;;17.33;;
16460;SDS011;8341;42.048;24.650;2023-02-28T09:24:42;28.38;;;18.83;;
16460;SDS011;8341;42.048;24.650;2023-02-28T09:27:09;29.20;;;17.52;;
16460;SDS011;8341;42.048;24.650;2023-02-28T09:29:36;33.28;;;18.48;;
16460;SDS011;8341;42.048;24.650;2023-02-28T09:32:05;25.60;;;15.93;;
16460;SDS011;8341;42.048;24.650;2023-02-28T09:34:32;30.90;;;17.80;;
16460;SDS011;8341;42.048;24.650;2023-02-28T09:36:59;27.85;;;17.40;;
16460;SDS011;8341;42.048;24.650;2023-02-28T09:39:25;28.55;;;17.48;;
16460;SDS011;8341;42.048;24.650;2023-02-28T09:41:54;27.85;;;17.33;;
16460;SDS011;8341;42.048;24.650;2023-02-28T09:44:25;28.77;;;18.63;;
16460;SDS011;8341;42.048;24.650;2023-02-28T09:46:56;33.85;;;19.00;;
16460;SDS011;8341;42.048;24.650;2023-02-28T09:49:37;25.83;;;17.58;;
16460;SDS011;8341;42.048;24.650;2023-02-28T09:52:09;30.15;;;19.63;;
16460;SDS011;8341;42.048;24.650;2023-02-28T09:54:38;32.92;;;18.60;;
16460;SDS011;8341;42.048;24.650;2023-02-28T09:57:06;33.60;;;20.60;;
16460;SDS011;8341;42.048;24.650;2023-02-28T09:59:41;35.75;;;21.15;;
16460;SDS011;8341;42.048;24.650;2023-02-28T10:02:19;50.50;;;31.52;;
16460;SDS011;8341;42.048;24.650;2023-02-28T10:05:04;40.88;;;26.20;;
16460;SDS011;8341;42.048;24.650;2023-02-28T10:07:39;34.55;;;21.55;;
16460;SDS011;8341;42.048;24.650;2023-02-28T10:10:18;34.53;;;19.50;;
16460;SDS011;8341;42.048;24.650;2023-02-28T10:12:49;34.67;;;21.00;;
16460;SDS011;8341;42.048;24.650;2023-02-28T10:15:19;33.42;;;19.88;;
16460;SDS011;8341;42.048;24.650;2023-02-28T10:17:50;32.42;;;21.92;;
16460;SDS011;8341;42.048;24.650;2023-02-28T10:20:23;31.63;;;20.23;;
16460;SDS011;8341;42.048;24.650;2023-02-28T10:22:57;35.00;;;20.23;;
16460;SDS011;8341;42.048;24.650;2023-02-28T10:25:32;29.63;;;19.00;;
16460;SDS011;8341;42.048;24.650;2023-02-28T10:28:04;32.85;;;20.38;;
16460;SDS011;8341;42.048;24.650;2023-02-28T10:30:37;33.33;;;20.67;;
16460;SDS011;8341;42.048;24.650;2023-02-28T10:33:08;36.08;;;22.05;;
16460;SDS011;8341;42.048;24.650;2023-02-28T10:35:45;31.90;;;21.35;;
16460;SDS011;8341;42.048;24.650;2023-02-28T10:38:15;33.03;;;21.60;;
16460;SDS011;8341;42.048;24.650;2023-02-28T10:40:43;29.27;;;19.73;;
16460;SDS011;8341;42.048;24.650;2023-02-28T10:43:18;37.67;;;22.25;;
16460;SDS011;8341;42.048;24.650;2023-02-28T10:45:55;30.15;;;21.30;;
16460;SDS011;8341;42.048;24.650;2023-02-28T10:48:26;33.40;;;22.08;;
16460;SDS011;8341;42.048;24.650;2023-02-28T10:50:58;35.55;;;21.88;;
16460;SDS011;8341;42.048;24.650;2023-02-28T10:53:28;33.28;;;20.98;;
16460;SDS011;8341;42.048;24.650;2023-02-28T10:55:59;35.35;;;23.60;;
16460;SDS011;8341;42.048;24.650;2023-02-28T10:58:28;38.53;;;23.65;;
16460;SDS011;8341;42.048;24.650;2023-02-28T11:00:57;41.90;;;23.40;;
16460;SDS011;8341;42.048;24.650;2023-02-28T11:03:34;35.03;;;23.65;;
16460;SDS011;8341;42.048;24.650;2023-02-28T11:06:06;40.03;;;24.10;;
16460;SDS011;8341;42.048;24.650;2023-02-28T11:08:43;43.08;;;24.50;;
16460;SDS011;8341;42.048;24.650;2023-02-28T11:11:15;38.05;;;24.52;;
16460;SDS011;8341;42.048;24.650;2023-02-28T11:13:43;41.95;;;24.48;;
16460;SDS011;8341;42.048;24.650;2023-02-28T11:16:12;51.30;;;30.25;;
16460;SDS011;8341;42.048;24.650;2023-02-28T11:18:41;47.10;;;29.80;;
16460;SDS011;8341;42.048;24.650;2023-02-28T11:21:16;56.17;;;31.92;;
16460;SDS011;8341;42.048;24.650;2023-02-28T11:23:47;56.15;;;33.42;;
16460;SDS011;8341;42.048;24.650;2023-02-28T11:29:05;50.53;;;27.90;;
16460;SDS011;8341;42.048;24.650;2023-02-28T11:31:37;49.30;;;29.48;;
16460;SDS011;8341;42.048;24.650;2023-02-28T11:34:20;52.42;;;31.63;;
16460;SDS011;8341;42.048;24.650;2023-02-28T11:36:51;47.30;;;25.98;;
16460;SDS011;8341;42.048;24.650;2023-02-28T11:39:19;45.05;;;24.85;;
16460;SDS011;8341;42.048;24.650;2023-02-28T11:44:37;43.58;;;26.25;;
16460;SDS011;8341;42.048;24.650;2023-02-28T11:47:12;42.00;;;23.45;;
16460;SDS011;8341;42.048;24.650;2023-02-28T11:49:45;47.40;;;26.30;;
16460;SDS011;8341;42.048;24.650;2023-02-28T11:52:29;48.53;;;25.58;;
16460;SDS011;8341;42.048;24.650;2023-02-28T11:55:08;44.30;;;24.40;;
16460;SDS011;8341;42.048;24.650;2023-02-28T12:00:38;47.35;;;26.10;;
16460;SDS011;8341;42.048;24.650;2023-02-28T12:03:15;48.30;;;27.90;;
16460;SDS011;8341;42.048;24.650;2023-02-28T12:05:53;52.35;;;26.63;;
16460;SDS011;8341;42.048;24.650;2023-02-28T12:08:31;43.67;;;25.45;;
16460;SDS011;8341;42.048;24.650;2023-02-28T12:11:11;42.05;;;24.40;;
16460;SDS011;8341;42.048;24.650;2023-02-28T12:13:46;48.50;;;26.77;;
16460;SDS011;8341;42.048;24.650;2023-02-28T12:19:16;43.00;;;24.52;;
16460;SDS011;8341;42.048;24.650;2023-02-28T12:21:52;44.53;;;26.13;;
16460;SDS011;8341;42.048;24.650;2023-02-28T12:27:41;42.83;;;25.75;;
16460;SDS011;8341;42.048;24.650;2023-02-28T12:30:13;43.28;;;25.05;;
16460;SDS011;8341;42.048;24.650;2023-02-28T12:32:44;44.75;;;26.30;;
16460;SDS011;8341;42.048;24.650;2023-02-28T12:35:16;47.20;;;28.52;;
16460;SDS011;8341;42.048;24.650;2023-02-28T12:37:47;41.45;;;25.13;;
16460;SDS011;8341;42.048;24.650;2023-02-28T12:40:21;45.35;;;26.45;;
16460;SDS011;8341;42.048;24.650;2023-02-28T12:42:51;43.67;;;26.20;;
16460;SDS011;8341;42.048;24.650;2023-02-28T12:45:21;45.22;;;27.75;;
16460;SDS011;8341;42.048;24.650;2023-02-28T12:47:50;45.55;;;28.15;;
16460;SDS011;8341;42.048;24.650;2023-02-28T12:50:22;45.03;;;26.20;;
16460;SDS011;8341;42.048;24.650;2023-02-28T12:52:54;46.10;;;27.85;;
16460;SDS011;8341;42.048;24.650;2023-02-28T12:55:27;52.70;;;31.92;;
16460;SDS011;8341;42.048;24.650;2023-02-28T12:58:04;66.88;;;41.58;;
16460;SDS011;8341;42.048;24.650;2023-02-28T13:00:48;50.58;;;30.52;;
16460;SDS011;8341;42.048;24.650;2023-02-28T13:03:31;47.55;;;29.35;;
16460;SDS011;8341;42.048;24.650;2023-02-28T13:09:04;49.17;;;28.48;;
16460;SDS011;8341;42.048;24.650;2023-02-28T13:11:38;48.35;;;28.90;;
16460;SDS011;8341;42.048;24.650;2023-02-28T13:14:16;45.40;;;28.58;;
16460;SDS011;8341;42.048;24.650;2023-02-28T13:16:50;50.70;;;28.98;;
16460;SDS011;8341;42.048;24.650;2023-02-28T13:19:22;50.60;;;28.98;;
16460;SDS011;8341;42.048;24.650;2023-02-28T13:21:51;49.67;;;29.40;;
16460;SDS011;8341;42.048;24.650;2023-02-28T13:24:38;53.97;;;31.73;;
16460;SDS011;8341;42.048;24.650;2023-02-28T13:27:11;47.97;;;30.05;;
16460;SDS011;8341;42.048;24.650;2023-02-28T13:29:51;47.38;;;27.27;;
16460;SDS011;8341;42.048;24.650;2023-02-28T13:32:29;49.10;;;27.98;;
16460;SDS011;8341;42.048;24.650;2023-02-28T13:38:17;44.20;;;26.52;;
16460;SDS011;8341;42.048;24.650;2023-02-28T13:40:49;44.58;;;26.75;;
16460;SDS011;8341;42.048;24.650;2023-02-28T13:43:16;45.25;;;28.25;;
16460;SDS011;8341;42.048;24.650;2023-02-28T13:46:06;47.05;;;27.95;;
16460;SDS011;8341;42.048;24.650;2023-02-28T13:48:37;44.15;;;26.90;;
16460;SDS011;8341;42.048;24.650;2023-02-28T13:54:14;43.40;;;26.05;;
16460;SDS011;8341;42.048;24.650;2023-02-28T13:57:03;40.45;;;25.33;;
16460;SDS011;8341;42.048;24.650;2023-02-28T13:59:39;46.30;;;27.88;;
16460;SDS011;8341;42.048;24.650;2023-02-28T14:05:26;40.47;;;24.33;;
16460;SDS011;8341;42.048;24.650;2023-02-28T14:07:56;40.88;;;23.80;;
16460;SDS011;8341;42.048;24.650;2023-02-28T14:10:26;44.67;;;25.08;;
16460;SDS011;8341;42.048;24.650;2023-02-28T14:12:56;38.35;;;23.98;;
16460;SDS011;8341;42.048;24.650;2023-02-28T14:15:27;37.05;;;23.90;;
16460;SDS011;8341;42.048;24.650;2023-02-28T14:18:11;38.33;;;22.73;;
16460;SDS011;8341;42.048;24.650;2023-02-28T14:20:43;38.95;;;22.48;;
16460;SDS011;8341;42.048;24.650;2023-02-28T14:23:15;34.10;;;21.85;;
16460;SDS011;8341;42.048;24.650;2023-02-28T14:25:51;37.70;;;22.25;;
16460;SDS011;8341;42.048;24.650;2023-02-28T14:28:34;47.35;;;23.65;;
16460;SDS011;8341;42.048;24.650;2023-02-28T14:31:13;36.40;;;22.20;;
16460;SDS011;8341;42.048;24.650;2023-02-28T14:33:59;40.88;;;21.58;;
16460;SDS011;8341;42.048;24.650;2023-02-28T14:36:43;35.85;;;18.52;;
16460;SDS011;8341;42.048;24.650;2023-02-28T14:39:12;44.35;;;21.13;;
16460;SDS011;8341;42.048;24.650;2023-02-28T14:41:41;38.85;;;21.90;;
16460;SDS011;8341;42.048;24.650;2023-02-28T14:44:13;32.17;;;19.48;;
16460;SDS011;8341;42.048;24.650;2023-02-28T14:46:43;33.67;;;18.13;;
16460;SDS011;8341;42.048;24.650;2023-02-28T14:49:24;28.95;;;17.42;;
16460;SDS011;8341;42.048;24.650;2023-02-28T14:52:01;29.00;;;16.85;;
16460;SDS011;8341;42.048;24.650;2023-02-28T14:54:31;33.08;;;18.00;;
16460;SDS011;8341;42.048;24.650;2023-02-28T14:56:59;30.73;;;18.15;;
16460;SDS011;8341;42.048;24.650;2023-02-28T14:59:27;25.15;;;13.98;;
16460;SDS011;8341;42.048;24.650;2023-02-28T15:02:15;31.33;;;18.30;;
16460;SDS011;8341;42.048;24.650;2023-02-28T15:04:45;57.00;;;18.25;;
16460;SDS011;8341;42.048;24.650;2023-02-28T15:07:19;33.97;;;17.55;;
16460;SDS011;8341;42.048;24.650;2023-02-28T15:10:17;113.45;;;18.75;;
16460;SDS011;8341;42.048;24.650;2023-02-28T15:12:47;21.42;;;12.80;;
16460;SDS011;8341;42.048;24.650;2023-02-28T15:15:19;18.00;;;10.70;;
16460;SDS011;8341;42.048;24.650;2023-02-28T15:17:48;29.30;;;16.35;;
16460;SDS011;8341;42.048;24.650;2023-02-28T15:20:19;28.45;;;15.10;;
16460;SDS011;8341;42.048;24.650;2023-02-28T15:22:47;22.00;;;12.65;;
16460;SDS011;8341;42.048;24.650;2023-02-28T15:25:19;24.77;;;14.80;;
16460;SDS011;8341;42.048;24.650;2023-02-28T15:27:49;23.33;;;13.43;;